sensor_id;sensor_type;location;lat;lon;timestamp;temperature;humidity
28460;DHT22;32528;45.712;9.192;2022-12-07T00:01:41;2.60;99.90
28460;DHT22;32528;45.712;9.192;2022-12-07T00:03:43;2.70;99.90
28460;DHT22;32528;45.712;9.192;2022-12-07T00:05:44;2.70;99.90
28460;DHT22;32528;45.712;9.192;2022-12-07T00:07:44;2.70;99.90
28460;DHT22;32528;45.712;9.192;2022-12-07T00:09:45;2.70;99.90
28460;DHT22;32528;45.712;9.192;2022-12-07T00:11:47;2.60;99.90
28460;DHT22;32528;45.712;9.192;2022-12-07T00:14:09;2.70;99.90
28460;DHT22;32528;45.712;9.192;2022-12-07T00:16:12;2.70;99.90
28460;DHT22;32528;45.712;9.192;2022-12-07T00:18:12;2.70;99.90
28460;DHT22;32528;45.712;9.192;2022-12-07T00:20:13;2.80;99.90
28460;DHT22;32528;45.712;9.192;2022-12-07T00:22:14;2.70;99.90
28460;DHT22;32528;45.712;9.192;2022-12-07T00:24:14;2.70;99.90
28460;DHT22;32528;45.712;9.192;2022-12-07T00:26:16;2.70;99.90
28460;DHT22;32528;45.712;9.192;2022-12-07T00:28:17;2.70;99.90
28460;DHT22;32528;45.712;9.192;2022-12-07T00:30:18;2.80;99.90
28460;DHT22;32528;45.712;9.192;2022-12-07T00:32:18;2.80;99.90
28460;DHT22;32528;45.712;9.192;2022-12-07T00:34:20;2.80;99.90
28460;DHT22;32528;45.712;9.192;2022-12-07T00:36:22;2.80;99.90
28460;DHT22;32528;45.712;9.192;2022-12-07T00:38:23;2.80;99.90
28460;DHT22;32528;45.712;9.192;2022-12-07T00:40:23;2.70;99.90
28460;DHT22;32528;45.712;9.192;2022-12-07T00:42:24;2.70;99.90
28460;DHT22;32528;45.712;9.192;2022-12-07T00:44:25;2.70;99.90
28460;DHT22;32528;45.712;9.192;2022-12-07T00:46:26;2.60;99.90
28460;DHT22;32528;45.712;9.192;2022-12-07T00:48:27;2.60;99.90
28460;DHT22;32528;45.712;9.192;2022-12-07T00:50:28;2.60;99.90
28460;DHT22;32528;45.712;9.192;2022-12-07T00:52:28;2.60;99.90
28460;DHT22;32528;45.712;9.192;2022-12-07T00:54:29;2.50;99.90
28460;DHT22;32528;45.712;9.192;2022-12-07T00:56:29;2.60;99.90
28460;DHT22;32528;45.712;9.192;2022-12-07T00:58:30;2.60;99.90
28460;DHT22;32528;45.712;9.192;2022-12-07T01:00:31;2.70;99.90
28460;DHT22;32528;45.712;9.192;2022-12-07T01:02:32;2.70;99.90
28460;DHT22;32528;45.712;9.192;2022-12-07T01:04:33;2.70;99.90
28460;DHT22;32528;45.712;9.192;2022-12-07T01:06:34;2.80;99.90
28460;DHT22;32528;45.712;9.192;2022-12-07T01:08:34;2.70;99.90
28460;DHT22;32528;45.712;9.192;2022-12-07T01:10:35;2.70;99.90
28460;DHT22;32528;45.712;9.192;2022-12-07T01:12:36;2.70;99.90
28460;DHT22;32528;45.712;9.192;2022-12-07T01:14:36;2.70;99.90
28460;DHT22;32528;45.712;9.192;2022-12-07T01:16:38;2.70;99.90
28460;DHT22;32528;45.712;9.192;2022-12-07T01:18:39;2.70;99.90
28460;DHT22;32528;45.712;9.192;2022-12-07T01:20:40;2.70;99.90
28460;DHT22;32528;45.712;9.192;2022-12-07T01:22:40;2.60;99.90
28460;DHT22;32528;45.712;9.192;2022-12-07T01:24:42;2.70;99.90
28460;DHT22;32528;45.712;9.192;2022-12-07T01:26:43;2.70;99.90
28460;DHT22;32528;45.712;9.192;2022-12-07T01:28:44;2.70;99.90
28460;DHT22;32528;45.712;9.192;2022-12-07T01:30:54;2.70;99.90
28460;DHT22;32528;45.712;9.192;2022-12-07T01:32:54;2.70;99.90
28460;DHT22;32528;45.712;9.192;2022-12-07T01:34:55;2.70;99.90
28460;DHT22;32528;45.712;9.192;2022-12-07T01:36:55;2.70;99.90
28460;DHT22;32528;45.712;9.192;2022-12-07T01:38:57;2.70;99.90
28460;DHT22;32528;45.712;9.192;2022-12-07T01:40:59;2.70;99.90
28460;DHT22;32528;45.712;9.192;2022-12-07T01:43:00;2.70;99.90
28460;DHT22;32528;45.712;9.192;2022-12-07T01:47:20;2.70;99.90
28460;DHT22;32528;45.712;9.192;2022-12-07T01:51:24;2.60;99.90
28460;DHT22;32528;45.712;9.192;2022-12-07T01:53:26;2.60;99.90
28460;DHT22;32528;45.712;9.192;2022-12-07T01:55:27;2.60;99.90
28460;DHT22;32528;45.712;9.192;2022-12-07T01:57:29;2.50;99.90
28460;DHT22;32528;45.712;9.192;2022-12-07T01:59:31;2.50;99.90
28460;DHT22;32528;45.712;9.192;2022-12-07T02:01:33;2.50;99.90
28460;DHT22;32528;45.712;9.192;2022-12-07T02:03:35;2.50;99.90
28460;DHT22;32528;45.712;9.192;2022-12-07T02:05:38;2.40;99.90
28460;DHT22;32528;45.712;9.192;2022-12-07T02:07:40;2.40;99.90
28460;DHT22;32528;45.712;9.192;2022-12-07T02:09:41;2.30;99.90
28460;DHT22;32528;45.712;9.192;2022-12-07T02:11:41;2.30;99.90
28460;DHT22;32528;45.712;9.192;2022-12-07T02:13:42;2.30;99.90
28460;DHT22;32528;45.712;9.192;2022-12-07T02:29:27;2.30;99.90
28460;DHT22;32528;45.712;9.192;2022-12-07T02:31:29;2.30;99.90
28460;DHT22;32528;45.712;9.192;2022-12-07T02:33:36;2.30;99.90
28460;DHT22;32528;45.712;9.192;2022-12-07T02:35:40;2.30;99.90
28460;DHT22;32528;45.712;9.192;2022-12-07T02:39:53;2.20;99.90
28460;DHT22;32528;45.712;9.192;2022-12-07T02:42:02;2.20;99.90
28460;DHT22;32528;45.712;9.192;2022-12-07T02:44:09;2.10;99.90
28460;DHT22;32528;45.712;9.192;2022-12-07T02:46:12;2.10;99.90
28460;DHT22;32528;45.712;9.192;2022-12-07T02:48:14;2.10;99.90
28460;DHT22;32528;45.712;9.192;2022-12-07T02:50:18;2.10;99.90
28460;DHT22;32528;45.712;9.192;2022-12-07T02:52:19;2.10;99.90
28460;DHT22;32528;45.712;9.192;2022-12-07T02:54:20;2.10;99.90
28460;DHT22;32528;45.712;9.192;2022-12-07T02:56:44;2.00;99.90
28460;DHT22;32528;45.712;9.192;2022-12-07T03:01:03;2.00;99.90
28460;DHT22;32528;45.712;9.192;2022-12-07T03:03:06;2.00;99.90
28460;DHT22;32528;45.712;9.192;2022-12-07T03:05:20;2.00;99.90
28460;DHT22;32528;45.712;9.192;2022-12-07T03:07:29;2.00;99.90
28460;DHT22;32528;45.712;9.192;2022-12-07T03:09:44;1.90;99.90
28460;DHT22;32528;45.712;9.192;2022-12-07T03:11:55;1.90;99.90
28460;DHT22;32528;45.712;9.192;2022-12-07T03:14:13;1.90;99.90
28460;DHT22;32528;45.712;9.192;2022-12-07T03:16:21;1.90;99.90
28460;DHT22;32528;45.712;9.192;2022-12-07T03:18:24;1.90;99.90
28460;DHT22;32528;45.712;9.192;2022-12-07T03:20:25;1.90;99.90
28460;DHT22;32528;45.712;9.192;2022-12-07T03:22:27;1.90;99.90
28460;DHT22;32528;45.712;9.192;2022-12-07T03:24:31;1.90;99.90
28460;DHT22;32528;45.712;9.192;2022-12-07T03:26:34;1.80;99.90
28460;DHT22;32528;45.712;9.192;2022-12-07T03:28:37;1.80;99.90
28460;DHT22;32528;45.712;9.192;2022-12-07T03:30:44;1.80;99.90
28460;DHT22;32528;45.712;9.192;2022-12-07T03:32:50;1.80;99.90
28460;DHT22;32528;45.712;9.192;2022-12-07T03:34:55;1.80;99.90
28460;DHT22;32528;45.712;9.192;2022-12-07T03:36:59;1.80;99.90
28460;DHT22;32528;45.712;9.192;2022-12-07T03:41:24;1.70;99.90
28460;DHT22;32528;45.712;9.192;2022-12-07T03:43:27;1.70;99.90
28460;DHT22;32528;45.712;9.192;2022-12-07T03:46:06;1.70;99.90
28460;DHT22;32528;45.712;9.192;2022-12-07T03:50:19;1.70;99.90
28460;DHT22;32528;45.712;9.192;2022-12-07T03:52:23;1.70;99.90
28460;DHT22;32528;45.712;9.192;2022-12-07T03:54:28;1.70;99.90
28460;DHT22;32528;45.712;9.192;2022-12-07T03:56:30;1.70;99.90
28460;DHT22;32528;45.712;9.192;2022-12-07T03:58:31;1.70;99.90
28460;DHT22;32528;45.712;9.192;2022-12-07T04:00:33;1.70;99.90
28460;DHT22;32528;45.712;9.192;2022-12-07T04:02:34;1.70;99.90
28460;DHT22;32528;45.712;9.192;2022-12-07T04:04:34;1.70;99.90
28460;DHT22;32528;45.712;9.192;2022-12-07T04:06:35;1.70;99.90
28460;DHT22;32528;45.712;9.192;2022-12-07T04:08:36;1.70;99.90
28460;DHT22;32528;45.712;9.192;2022-12-07T04:10:38;1.70;99.90
28460;DHT22;32528;45.712;9.192;2022-12-07T04:12:39;1.70;99.90
28460;DHT22;32528;45.712;9.192;2022-12-07T04:14:40;1.70;99.90
28460;DHT22;32528;45.712;9.192;2022-12-07T04:16:40;1.70;99.90
28460;DHT22;32528;45.712;9.192;2022-12-07T04:18:41;1.60;99.90
28460;DHT22;32528;45.712;9.192;2022-12-07T04:20:42;1.60;99.90
28460;DHT22;32528;45.712;9.192;2022-12-07T04:22:42;1.60;99.90
28460;DHT22;32528;45.712;9.192;2022-12-07T04:24:43;1.70;99.90
28460;DHT22;32528;45.712;9.192;2022-12-07T04:26:44;1.70;99.90
28460;DHT22;32528;45.712;9.192;2022-12-07T04:28:44;1.70;99.90
28460;DHT22;32528;45.712;9.192;2022-12-07T04:30:45;1.70;99.90
28460;DHT22;32528;45.712;9.192;2022-12-07T04:32:46;1.70;99.90
28460;DHT22;32528;45.712;9.192;2022-12-07T04:34:46;1.60;99.90
28460;DHT22;32528;45.712;9.192;2022-12-07T04:36:47;1.50;99.90
28460;DHT22;32528;45.712;9.192;2022-12-07T04:38:48;1.50;99.90
28460;DHT22;32528;45.712;9.192;2022-12-07T04:40:48;1.60;99.90
28460;DHT22;32528;45.712;9.192;2022-12-07T04:42:49;1.50;99.90
28460;DHT22;32528;45.712;9.192;2022-12-07T04:44:50;1.50;99.90
28460;DHT22;32528;45.712;9.192;2022-12-07T04:46:51;1.50;99.90
28460;DHT22;32528;45.712;9.192;2022-12-07T04:48:52;1.50;99.90
28460;DHT22;32528;45.712;9.192;2022-12-07T04:50:53;1.50;99.90
28460;DHT22;32528;45.712;9.192;2022-12-07T04:52:54;1.50;99.90
28460;DHT22;32528;45.712;9.192;2022-12-07T04:54:54;1.50;99.90
28460;DHT22;32528;45.712;9.192;2022-12-07T04:56:55;1.60;99.90
28460;DHT22;32528;45.712;9.192;2022-12-07T04:58:56;1.60;99.90
28460;DHT22;32528;45.712;9.192;2022-12-07T05:00:56;1.50;99.90
28460;DHT22;32528;45.712;9.192;2022-12-07T05:02:57;1.60;99.90
28460;DHT22;32528;45.712;9.192;2022-12-07T05:04:57;1.60;99.90
28460;DHT22;32528;45.712;9.192;2022-12-07T05:06:58;1.60;99.90
28460;DHT22;32528;45.712;9.192;2022-12-07T05:08:59;1.60;99.90
28460;DHT22;32528;45.712;9.192;2022-12-07T05:10:59;1.70;99.90
28460;DHT22;32528;45.712;9.192;2022-12-07T05:13:00;1.70;99.90
28460;DHT22;32528;45.712;9.192;2022-12-07T05:15:01;1.70;99.90
28460;DHT22;32528;45.712;9.192;2022-12-07T05:17:01;1.70;99.90
28460;DHT22;32528;45.712;9.192;2022-12-07T05:19:02;1.70;99.90
28460;DHT22;32528;45.712;9.192;2022-12-07T05:21:04;1.60;99.90
28460;DHT22;32528;45.712;9.192;2022-12-07T05:23:04;1.60;99.90
28460;DHT22;32528;45.712;9.192;2022-12-07T05:25:05;1.60;99.90
28460;DHT22;32528;45.712;9.192;2022-12-07T05:27:06;1.60;99.90
28460;DHT22;32528;45.712;9.192;2022-12-07T05:29:09;1.60;99.90
28460;DHT22;32528;45.712;9.192;2022-12-07T05:31:10;1.60;99.90
28460;DHT22;32528;45.712;9.192;2022-12-07T05:33:11;1.60;99.90
28460;DHT22;32528;45.712;9.192;2022-12-07T05:35:12;1.60;99.90
28460;DHT22;32528;45.712;9.192;2022-12-07T05:37:12;1.50;99.90
28460;DHT22;32528;45.712;9.192;2022-12-07T05:39:13;1.50;99.90
28460;DHT22;32528;45.712;9.192;2022-12-07T05:41:15;1.50;99.90
28460;DHT22;32528;45.712;9.192;2022-12-07T05:43:34;1.50;99.90
28460;DHT22;32528;45.712;9.192;2022-12-07T05:45:35;1.50;99.90
28460;DHT22;32528;45.712;9.192;2022-12-07T05:47:36;1.50;99.90
28460;DHT22;32528;45.712;9.192;2022-12-07T05:49:37;1.50;99.90
28460;DHT22;32528;45.712;9.192;2022-12-07T05:51:38;1.60;99.90
28460;DHT22;32528;45.712;9.192;2022-12-07T05:53:38;1.60;99.90
28460;DHT22;32528;45.712;9.192;2022-12-07T05:55:39;1.60;99.90
28460;DHT22;32528;45.712;9.192;2022-12-07T05:57:39;1.50;99.90
28460;DHT22;32528;45.712;9.192;2022-12-07T06:00:02;1.50;99.90
28460;DHT22;32528;45.712;9.192;2022-12-07T06:02:13;1.60;99.90
28460;DHT22;32528;45.712;9.192;2022-12-07T06:04:14;1.60;99.90
28460;DHT22;32528;45.712;9.192;2022-12-07T06:06:15;1.70;99.90
28460;DHT22;32528;45.712;9.192;2022-12-07T06:08:15;1.70;99.90
28460;DHT22;32528;45.712;9.192;2022-12-07T06:10:16;1.80;99.90
28460;DHT22;32528;45.712;9.192;2022-12-07T06:12:17;1.70;99.90
28460;DHT22;32528;45.712;9.192;2022-12-07T06:14:38;1.60;99.90
28460;DHT22;32528;45.712;9.192;2022-12-07T06:16:39;1.60;99.90
28460;DHT22;32528;45.712;9.192;2022-12-07T06:18:40;1.70;99.90
28460;DHT22;32528;45.712;9.192;2022-12-07T06:20:41;1.70;99.90
28460;DHT22;32528;45.712;9.192;2022-12-07T06:22:41;1.70;99.90
28460;DHT22;32528;45.712;9.192;2022-12-07T06:24:42;1.70;99.90
28460;DHT22;32528;45.712;9.192;2022-12-07T06:26:43;1.70;99.90
28460;DHT22;32528;45.712;9.192;2022-12-07T06:28:43;1.70;99.90
28460;DHT22;32528;45.712;9.192;2022-12-07T06:30:44;1.60;99.90
28460;DHT22;32528;45.712;9.192;2022-12-07T06:32:45;1.70;99.90
28460;DHT22;32528;45.712;9.192;2022-12-07T06:34:46;1.70;99.90
28460;DHT22;32528;45.712;9.192;2022-12-07T06:36:48;1.80;99.90
28460;DHT22;32528;45.712;9.192;2022-12-07T06:38:52;1.70;99.90
28460;DHT22;32528;45.712;9.192;2022-12-07T06:40:52;1.80;99.90
28460;DHT22;32528;45.712;9.192;2022-12-07T06:42:53;1.70;99.90
28460;DHT22;32528;45.712;9.192;2022-12-07T06:44:54;1.80;99.90
28460;DHT22;32528;45.712;9.192;2022-12-07T06:46:56;1.70;99.90
28460;DHT22;32528;45.712;9.192;2022-12-07T06:48:57;1.70;99.90
28460;DHT22;32528;45.712;9.192;2022-12-07T06:50:58;1.70;99.90
28460;DHT22;32528;45.712;9.192;2022-12-07T06:52:58;1.70;99.90
28460;DHT22;32528;45.712;9.192;2022-12-07T06:54:59;1.70;99.90
28460;DHT22;32528;45.712;9.192;2022-12-07T06:56:59;1.70;99.90
28460;DHT22;32528;45.712;9.192;2022-12-07T06:59:00;1.70;99.90
28460;DHT22;32528;45.712;9.192;2022-12-07T07:01:01;1.70;99.90
28460;DHT22;32528;45.712;9.192;2022-12-07T07:03:01;1.70;99.90
28460;DHT22;32528;45.712;9.192;2022-12-07T07:05:02;1.60;99.90
28460;DHT22;32528;45.712;9.192;2022-12-07T07:07:03;1.60;99.90
28460;DHT22;32528;45.712;9.192;2022-12-07T07:09:03;1.70;99.90
28460;DHT22;32528;45.712;9.192;2022-12-07T07:11:04;1.70;99.90
28460;DHT22;32528;45.712;9.192;2022-12-07T07:13:05;1.80;99.90
28460;DHT22;32528;45.712;9.192;2022-12-07T07:15:06;1.80;99.90
28460;DHT22;32528;45.712;9.192;2022-12-07T07:17:07;1.80;99.90
28460;DHT22;32528;45.712;9.192;2022-12-07T07:19:08;1.80;99.90
28460;DHT22;32528;45.712;9.192;2022-12-07T07:21:09;1.80;99.90
28460;DHT22;32528;45.712;9.192;2022-12-07T07:23:10;1.90;99.90
28460;DHT22;32528;45.712;9.192;2022-12-07T07:25:11;1.90;99.90
28460;DHT22;32528;45.712;9.192;2022-12-07T07:27:11;1.90;99.90
28460;DHT22;32528;45.712;9.192;2022-12-07T07:29:12;1.90;99.90
28460;DHT22;32528;45.712;9.192;2022-12-07T07:31:13;1.90;99.90
28460;DHT22;32528;45.712;9.192;2022-12-07T07:33:14;1.90;99.90
28460;DHT22;32528;45.712;9.192;2022-12-07T07:35:15;1.90;99.90
28460;DHT22;32528;45.712;9.192;2022-12-07T07:37:16;2.00;99.90
28460;DHT22;32528;45.712;9.192;2022-12-07T07:39:16;2.10;99.90
28460;DHT22;32528;45.712;9.192;2022-12-07T07:41:17;2.20;99.90
28460;DHT22;32528;45.712;9.192;2022-12-07T07:43:18;2.30;99.90
28460;DHT22;32528;45.712;9.192;2022-12-07T07:45:19;2.30;99.90
28460;DHT22;32528;45.712;9.192;2022-12-07T07:47:19;2.40;99.90
28460;DHT22;32528;45.712;9.192;2022-12-07T07:49:20;2.40;99.90
28460;DHT22;32528;45.712;9.192;2022-12-07T07:51:21;2.40;99.90
28460;DHT22;32528;45.712;9.192;2022-12-07T07:53:21;2.40;99.90
28460;DHT22;32528;45.712;9.192;2022-12-07T07:55:22;2.50;99.90
28460;DHT22;32528;45.712;9.192;2022-12-07T07:57:23;2.70;99.90
28460;DHT22;32528;45.712;9.192;2022-12-07T07:59:23;2.70;99.90
28460;DHT22;32528;45.712;9.192;2022-12-07T08:01:25;2.80;99.90
28460;DHT22;32528;45.712;9.192;2022-12-07T08:03:26;2.90;99.90
28460;DHT22;32528;45.712;9.192;2022-12-07T08:05:26;2.90;99.90
28460;DHT22;32528;45.712;9.192;2022-12-07T08:07:30;2.90;99.90
28460;DHT22;32528;45.712;9.192;2022-12-07T08:09:30;3.00;99.90
28460;DHT22;32528;45.712;9.192;2022-12-07T08:11:31;3.00;99.90
28460;DHT22;32528;45.712;9.192;2022-12-07T08:13:32;3.10;99.90
28460;DHT22;32528;45.712;9.192;2022-12-07T08:15:32;3.10;99.90
28460;DHT22;32528;45.712;9.192;2022-12-07T08:17:33;3.30;99.90
28460;DHT22;32528;45.712;9.192;2022-12-07T08:19:34;3.30;99.90
28460;DHT22;32528;45.712;9.192;2022-12-07T08:21:35;3.40;99.90
28460;DHT22;32528;45.712;9.192;2022-12-07T08:23:35;3.30;99.90
28460;DHT22;32528;45.712;9.192;2022-12-07T08:25:36;3.50;99.90
28460;DHT22;32528;45.712;9.192;2022-12-07T08:27:37;3.60;99.90
28460;DHT22;32528;45.712;9.192;2022-12-07T08:29:37;3.60;99.90
28460;DHT22;32528;45.712;9.192;2022-12-07T08:31:38;3.80;99.90
28460;DHT22;32528;45.712;9.192;2022-12-07T08:33:39;3.90;99.90
28460;DHT22;32528;45.712;9.192;2022-12-07T08:35:40;4.00;99.90
28460;DHT22;32528;45.712;9.192;2022-12-07T08:37:41;4.10;99.90
28460;DHT22;32528;45.712;9.192;2022-12-07T08:39:42;4.20;99.90
28460;DHT22;32528;45.712;9.192;2022-12-07T08:41:42;4.20;99.90
28460;DHT22;32528;45.712;9.192;2022-12-07T08:43:43;4.30;99.90
28460;DHT22;32528;45.712;9.192;2022-12-07T08:45:43;4.40;99.90
28460;DHT22;32528;45.712;9.192;2022-12-07T08:49:47;4.60;99.90
28460;DHT22;32528;45.712;9.192;2022-12-07T08:51:49;4.70;99.90
28460;DHT22;32528;45.712;9.192;2022-12-07T08:53:50;4.70;99.90
28460;DHT22;32528;45.712;9.192;2022-12-07T08:55:52;4.90;99.90
28460;DHT22;32528;45.712;9.192;2022-12-07T08:57:53;5.00;99.90
28460;DHT22;32528;45.712;9.192;2022-12-07T08:59:54;5.00;99.90
28460;DHT22;32528;45.712;9.192;2022-12-07T09:01:54;5.20;99.90
28460;DHT22;32528;45.712;9.192;2022-12-07T09:03:55;5.40;99.90
28460;DHT22;32528;45.712;9.192;2022-12-07T09:05:57;5.40;99.90
28460;DHT22;32528;45.712;9.192;2022-12-07T09:07:59;5.50;99.90
28460;DHT22;32528;45.712;9.192;2022-12-07T09:10:01;5.60;99.90
28460;DHT22;32528;45.712;9.192;2022-12-07T09:12:02;5.70;99.90
28460;DHT22;32528;45.712;9.192;2022-12-07T09:14:03;5.80;99.90
28460;DHT22;32528;45.712;9.192;2022-12-07T09:16:04;5.90;99.90
28460;DHT22;32528;45.712;9.192;2022-12-07T09:18:05;6.00;99.90
28460;DHT22;32528;45.712;9.192;2022-12-07T09:20:06;6.10;99.90
28460;DHT22;32528;45.712;9.192;2022-12-07T09:22:07;6.20;99.90
28460;DHT22;32528;45.712;9.192;2022-12-07T09:24:08;6.20;99.90
28460;DHT22;32528;45.712;9.192;2022-12-07T09:26:10;6.30;99.90
28460;DHT22;32528;45.712;9.192;2022-12-07T09:28:11;6.40;99.90
28460;DHT22;32528;45.712;9.192;2022-12-07T09:30:12;6.40;99.90
28460;DHT22;32528;45.712;9.192;2022-12-07T09:32:12;6.50;99.90
28460;DHT22;32528;45.712;9.192;2022-12-07T09:34:13;6.60;99.90
28460;DHT22;32528;45.712;9.192;2022-12-07T09:36:14;6.60;99.90
28460;DHT22;32528;45.712;9.192;2022-12-07T09:38:15;6.70;99.90
28460;DHT22;32528;45.712;9.192;2022-12-07T09:40:18;6.70;99.90
28460;DHT22;32528;45.712;9.192;2022-12-07T09:42:27;6.80;99.90
28460;DHT22;32528;45.712;9.192;2022-12-07T09:44:29;6.90;99.90
28460;DHT22;32528;45.712;9.192;2022-12-07T09:46:29;7.00;99.90
28460;DHT22;32528;45.712;9.192;2022-12-07T09:48:37;7.10;99.90
28460;DHT22;32528;45.712;9.192;2022-12-07T09:50:39;7.20;99.90
28460;DHT22;32528;45.712;9.192;2022-12-07T09:52:40;7.20;99.90
28460;DHT22;32528;45.712;9.192;2022-12-07T09:54:42;7.30;99.90
28460;DHT22;32528;45.712;9.192;2022-12-07T09:56:44;7.30;99.90
28460;DHT22;32528;45.712;9.192;2022-12-07T09:58:45;7.40;99.90
28460;DHT22;32528;45.712;9.192;2022-12-07T10:00:46;7.50;99.90
28460;DHT22;32528;45.712;9.192;2022-12-07T10:02:50;7.50;99.90
28460;DHT22;32528;45.712;9.192;2022-12-07T10:04:50;7.60;99.90
28460;DHT22;32528;45.712;9.192;2022-12-07T10:06:51;7.60;99.90
28460;DHT22;32528;45.712;9.192;2022-12-07T10:08:52;7.50;99.90
28460;DHT22;32528;45.712;9.192;2022-12-07T10:10:53;7.60;99.90
28460;DHT22;32528;45.712;9.192;2022-12-07T10:12:57;7.70;99.90
28460;DHT22;32528;45.712;9.192;2022-12-07T10:15:03;7.80;99.90
28460;DHT22;32528;45.712;9.192;2022-12-07T10:21:28;7.90;99.60
28460;DHT22;32528;45.712;9.192;2022-12-07T10:23:29;7.90;99.20
28460;DHT22;32528;45.712;9.192;2022-12-07T10:25:33;7.90;98.90
28460;DHT22;32528;45.712;9.192;2022-12-07T10:27:35;8.00;98.30
28460;DHT22;32528;45.712;9.192;2022-12-07T10:29:36;8.00;98.30
28460;DHT22;32528;45.712;9.192;2022-12-07T10:31:38;8.00;98.30
28460;DHT22;32528;45.712;9.192;2022-12-07T10:33:56;8.10;97.60
28460;DHT22;32528;45.712;9.192;2022-12-07T10:35:57;8.10;97.40
28460;DHT22;32528;45.712;9.192;2022-12-07T10:37:59;8.20;97.10
28460;DHT22;32528;45.712;9.192;2022-12-07T10:39:59;8.20;96.90
28460;DHT22;32528;45.712;9.192;2022-12-07T10:42:01;8.30;96.90
28460;DHT22;32528;45.712;9.192;2022-12-07T10:44:02;8.40;97.20
28460;DHT22;32528;45.712;9.192;2022-12-07T10:48:24;8.40;97.10
28460;DHT22;32528;45.712;9.192;2022-12-07T11:02:06;8.60;97.00
28460;DHT22;32528;45.712;9.192;2022-12-07T11:15:01;8.70;96.60
28460;DHT22;32528;45.712;9.192;2022-12-07T11:17:13;8.70;96.90
28460;DHT22;32528;45.712;9.192;2022-12-07T11:30:08;9.00;95.90
28460;DHT22;32528;45.712;9.192;2022-12-07T11:34:48;9.00;95.30
28460;DHT22;32528;45.712;9.192;2022-12-07T11:36:54;9.00;96.00
28460;DHT22;32528;45.712;9.192;2022-12-07T11:39:26;9.00;96.10
28460;DHT22;32528;45.712;9.192;2022-12-07T11:41:27;9.00;95.80
28460;DHT22;32528;45.712;9.192;2022-12-07T11:43:32;8.90;94.90
28460;DHT22;32528;45.712;9.192;2022-12-07T11:45:34;8.90;95.20
28460;DHT22;32528;45.712;9.192;2022-12-07T11:47:43;8.80;95.40
28460;DHT22;32528;45.712;9.192;2022-12-07T11:50:10;8.70;95.30
28460;DHT22;32528;45.712;9.192;2022-12-07T11:52:20;8.80;95.80
28460;DHT22;32528;45.712;9.192;2022-12-07T11:54:29;8.80;96.00
28460;DHT22;32528;45.712;9.192;2022-12-07T11:56:32;8.80;96.00
28460;DHT22;32528;45.712;9.192;2022-12-07T11:58:55;8.90;95.70
28460;DHT22;32528;45.712;9.192;2022-12-07T12:01:03;9.00;95.10
28460;DHT22;32528;45.712;9.192;2022-12-07T12:03:12;9.10;95.30
28460;DHT22;32528;45.712;9.192;2022-12-07T12:07:17;9.20;95.30
28460;DHT22;32528;45.712;9.192;2022-12-07T12:15:37;9.30;95.20
28460;DHT22;32528;45.712;9.192;2022-12-07T12:22:09;9.30;95.10
28460;DHT22;32528;45.712;9.192;2022-12-07T12:26:20;9.40;94.60
28460;DHT22;32528;45.712;9.192;2022-12-07T12:28:28;9.40;94.20
28460;DHT22;32528;45.712;9.192;2022-12-07T12:30:37;9.40;93.60
28460;DHT22;32528;45.712;9.192;2022-12-07T12:32:42;9.40;93.60
28460;DHT22;32528;45.712;9.192;2022-12-07T12:36:52;9.40;94.00
28460;DHT22;32528;45.712;9.192;2022-12-07T12:41:03;9.30;93.90
28460;DHT22;32528;45.712;9.192;2022-12-07T12:43:21;9.30;93.90
28460;DHT22;32528;45.712;9.192;2022-12-07T12:45:25;9.40;93.30
28460;DHT22;32528;45.712;9.192;2022-12-07T12:54:56;9.40;94.00
28460;DHT22;32528;45.712;9.192;2022-12-07T12:58:36;9.40;94.40
28460;DHT22;32528;45.712;9.192;2022-12-07T13:00:37;9.40;94.10
28460;DHT22;32528;45.712;9.192;2022-12-07T13:02:50;9.40;94.80
28460;DHT22;32528;45.712;9.192;2022-12-07T13:04:53;9.40;94.20
28460;DHT22;32528;45.712;9.192;2022-12-07T13:06:54;9.40;94.30
28460;DHT22;32528;45.712;9.192;2022-12-07T13:08:56;9.40;94.90
28460;DHT22;32528;45.712;9.192;2022-12-07T13:11:15;9.40;94.80
28460;DHT22;32528;45.712;9.192;2022-12-07T13:21:43;9.40;94.90
28460;DHT22;32528;45.712;9.192;2022-12-07T13:25:45;9.40;94.90
28460;DHT22;32528;45.712;9.192;2022-12-07T13:28:23;9.40;94.70
28460;DHT22;32528;45.712;9.192;2022-12-07T13:30:18;9.40;95.20
28460;DHT22;32528;45.712;9.192;2022-12-07T13:32:23;9.40;95.40
28460;DHT22;32528;45.712;9.192;2022-12-07T13:36:32;9.30;95.70
28460;DHT22;32528;45.712;9.192;2022-12-07T13:38:35;9.30;95.70
28460;DHT22;32528;45.712;9.192;2022-12-07T13:40:38;9.30;95.60
28460;DHT22;32528;45.712;9.192;2022-12-07T13:42:38;9.30;95.50
28460;DHT22;32528;45.712;9.192;2022-12-07T13:44:40;9.30;95.90
28460;DHT22;32528;45.712;9.192;2022-12-07T13:48:46;9.30;95.90
28460;DHT22;32528;45.712;9.192;2022-12-07T13:50:55;9.40;95.60
28460;DHT22;32528;45.712;9.192;2022-12-07T13:52:59;9.30;95.50
28460;DHT22;32528;45.712;9.192;2022-12-07T13:57:04;9.30;95.70
28460;DHT22;32528;45.712;9.192;2022-12-07T13:59:05;9.30;95.50
28460;DHT22;32528;45.712;9.192;2022-12-07T14:01:11;9.30;95.50
28460;DHT22;32528;45.712;9.192;2022-12-07T14:05:15;9.40;95.60
28460;DHT22;32528;45.712;9.192;2022-12-07T14:07:20;9.30;95.40
28460;DHT22;32528;45.712;9.192;2022-12-07T14:09:22;9.30;95.70
28460;DHT22;32528;45.712;9.192;2022-12-07T14:11:28;9.30;95.70
28460;DHT22;32528;45.712;9.192;2022-12-07T14:13:34;9.30;95.70
28460;DHT22;32528;45.712;9.192;2022-12-07T14:15:35;9.30;95.80
28460;DHT22;32528;45.712;9.192;2022-12-07T14:17:36;9.30;95.70
28460;DHT22;32528;45.712;9.192;2022-12-07T14:21:50;9.20;95.80
28460;DHT22;32528;45.712;9.192;2022-12-07T14:26:19;9.10;96.20
28460;DHT22;32528;45.712;9.192;2022-12-07T14:28:29;9.10;96.00
28460;DHT22;32528;45.712;9.192;2022-12-07T14:30:31;9.10;96.10
28460;DHT22;32528;45.712;9.192;2022-12-07T14:32:34;9.10;95.80
28460;DHT22;32528;45.712;9.192;2022-12-07T14:34:35;9.10;96.10
28460;DHT22;32528;45.712;9.192;2022-12-07T14:36:36;9.00;96.10
28460;DHT22;32528;45.712;9.192;2022-12-07T14:38:36;9.00;96.20
28460;DHT22;32528;45.712;9.192;2022-12-07T14:40:37;8.90;96.40
28460;DHT22;32528;45.712;9.192;2022-12-07T14:42:38;8.90;96.90
28460;DHT22;32528;45.712;9.192;2022-12-07T14:44:39;8.90;96.90
28460;DHT22;32528;45.712;9.192;2022-12-07T14:46:40;8.90;97.00
28460;DHT22;32528;45.712;9.192;2022-12-07T14:48:41;8.80;97.10
28460;DHT22;32528;45.712;9.192;2022-12-07T14:50:45;8.70;97.10
28460;DHT22;32528;45.712;9.192;2022-12-07T14:52:53;8.80;97.30
28460;DHT22;32528;45.712;9.192;2022-12-07T14:54:55;8.80;97.40
28460;DHT22;32528;45.712;9.192;2022-12-07T14:56:55;8.80;97.50
28460;DHT22;32528;45.712;9.192;2022-12-07T14:58:56;8.70;97.40
28460;DHT22;32528;45.712;9.192;2022-12-07T15:00:58;8.70;97.50
28460;DHT22;32528;45.712;9.192;2022-12-07T15:02:58;8.70;97.70
28460;DHT22;32528;45.712;9.192;2022-12-07T15:04:59;8.60;97.80
28460;DHT22;32528;45.712;9.192;2022-12-07T15:07:02;8.60;97.90
28460;DHT22;32528;45.712;9.192;2022-12-07T15:09:03;8.50;98.10
28460;DHT22;32528;45.712;9.192;2022-12-07T15:11:04;8.50;98.20